createdAt,value
2019-04-10T00:01:17.509Z,11.60
2019-04-10T00:03:48.291Z,11.60
2019-04-10T00:06:18.625Z,11.50
2019-04-10T00:08:50.571Z,11.50
2019-04-10T00:11:20.694Z,11.50
2019-04-10T00:13:51.140Z,11.50
2019-04-10T00:16:21.072Z,11.60
2019-04-10T00:18:51.391Z,11.60
2019-04-10T00:21:21.176Z,11.60
2019-04-10T00:23:51.306Z,11.60
2019-04-10T00:26:21.653Z,11.60
2019-04-10T00:28:51.907Z,11.50
2019-04-10T00:31:22.843Z,11.50
2019-04-10T00:33:53.524Z,11.50
2019-04-10T00:36:23.524Z,11.60
2019-04-10T00:38:53.859Z,11.50
2019-04-10T00:41:23.946Z,11.50
2019-04-10T00:43:53.951Z,11.50
2019-04-10T00:46:24.294Z,11.40
2019-04-10T00:48:55.205Z,11.40
2019-04-10T00:51:25.554Z,11.30
2019-04-10T00:53:55.471Z,11.30
2019-04-10T00:56:26.288Z,11.20
2019-04-10T00:58:56.425Z,11.10
2019-04-10T01:01:26.324Z,11.10
2019-04-10T01:03:56.444Z,11.10
2019-04-10T01:06:26.330Z,11.00
2019-04-10T01:08:57.183Z,10.90
2019-04-10T01:11:27.398Z,10.90
2019-04-10T01:13:57.386Z,10.80
2019-04-10T01:16:27.237Z,10.80
2019-04-10T01:18:57.067Z,10.70
2019-04-10T01:21:26.851Z,10.70
2019-04-10T01:23:57.331Z,10.60
2019-04-10T01:26:28.214Z,10.60
2019-04-10T01:28:58.111Z,10.60
2019-04-10T01:31:28.825Z,10.50
2019-04-10T01:33:58.687Z,10.50
2019-04-10T01:36:29.034Z,10.50
2019-04-10T01:38:59.917Z,10.50
2019-04-10T01:41:29.903Z,10.50
2019-04-10T01:43:59.691Z,10.50
2019-04-10T01:46:32.269Z,10.50
2019-04-10T01:49:01.698Z,10.50
2019-04-10T01:51:31.667Z,10.50
2019-04-10T01:54:02.597Z,10.40
2019-04-10T01:56:35.095Z,10.50
2019-04-10T01:59:04.328Z,10.50
2019-04-10T02:01:42.864Z,10.50
2019-04-10T02:04:12.833Z,10.50
2019-04-10T02:06:43.267Z,10.50
2019-04-10T02:09:13.187Z,10.40
2019-04-10T02:11:43.067Z,10.40
2019-04-10T02:14:12.860Z,10.50
2019-04-10T02:16:43.213Z,10.50
2019-04-10T02:19:14.176Z,10.40
2019-04-10T02:21:45.302Z,10.40
2019-04-10T02:24:15.103Z,10.30
2019-04-10T02:26:45.658Z,10.30
2019-04-10T02:29:15.628Z,10.30
2019-04-10T02:31:46.289Z,10.20
2019-04-10T02:34:17.142Z,10.20
2019-04-10T02:36:48.854Z,10.20
2019-04-10T02:39:27.431Z,10.10
2019-04-10T02:41:52.307Z,10.10
2019-04-10T02:44:22.934Z,10.00
2019-04-10T02:46:54.842Z,9.90
2019-04-10T02:49:24.788Z,9.90
2019-04-10T02:51:55.076Z,9.90
2019-04-10T02:54:25.162Z,9.90
2019-04-10T02:56:55.089Z,9.90
2019-04-10T02:59:24.887Z,9.80
2019-04-10T03:01:56.108Z,9.90
2019-04-10T03:04:26.736Z,9.90
2019-04-10T03:06:57.659Z,9.80
2019-04-10T03:09:41.817Z,9.80
2019-04-10T03:11:59.546Z,9.80
2019-04-10T03:14:29.582Z,9.90
2019-04-10T03:16:59.784Z,9.90
2019-04-10T03:19:31.658Z,9.90
2019-04-10T03:22:01.865Z,9.80
2019-04-10T03:24:31.854Z,9.80
2019-04-10T03:27:01.790Z,9.70
2019-04-10T03:29:31.711Z,9.80
2019-04-10T03:32:04.468Z,9.70
2019-04-10T03:34:40.064Z,9.70
2019-04-10T03:37:26.628Z,9.70
2019-04-10T03:39:57.346Z,9.70
2019-04-10T03:42:27.229Z,9.70
2019-04-10T03:44:57.030Z,9.70
2019-04-10T03:47:27.175Z,9.70
2019-04-10T03:49:58.208Z,9.70
2019-04-10T03:52:28.162Z,9.70
2019-04-10T03:54:58.704Z,9.70
2019-04-10T03:57:29.575Z,9.70
2019-04-10T03:59:59.900Z,9.70
2019-04-10T04:02:29.688Z,9.70
2019-04-10T04:04:59.474Z,9.60
2019-04-10T04:07:30.403Z,9.50
2019-04-10T04:10:00.425Z,9.50
2019-04-10T04:12:30.761Z,9.50
2019-04-10T04:15:01.902Z,9.50
2019-04-10T04:17:32.537Z,9.40
2019-04-10T04:20:02.578Z,9.40
2019-04-10T04:22:32.681Z,9.40
2019-04-10T04:25:02.582Z,9.40
2019-04-10T04:27:33.507Z,9.30
2019-04-10T04:30:06.374Z,9.30
2019-04-10T04:32:36.312Z,9.20
2019-04-10T04:35:06.360Z,9.20
2019-04-10T04:37:36.151Z,9.20
2019-04-10T04:40:06.669Z,9.20
2019-04-10T04:42:36.468Z,9.20
2019-04-10T04:45:06.318Z,9.10
2019-04-10T04:47:36.126Z,9.10
2019-04-10T04:50:07.738Z,9.00
2019-04-10T04:52:37.650Z,9.00
2019-04-10T04:55:08.213Z,8.90
2019-04-10T04:57:39.398Z,8.90
2019-04-10T05:00:11.406Z,8.90
2019-04-10T05:02:41.205Z,9.00
2019-04-10T05:05:11.187Z,9.00
2019-04-10T05:07:41.776Z,9.00
2019-04-10T05:10:11.809Z,9.00
2019-04-10T05:12:43.236Z,9.00
2019-04-10T05:15:13.258Z,8.90
2019-04-10T05:17:43.032Z,9.00
2019-04-10T05:20:13.000Z,9.00
2019-04-10T05:22:43.629Z,9.00
2019-04-10T05:25:13.512Z,8.90
2019-04-10T05:27:43.498Z,8.90
2019-04-10T05:30:13.510Z,8.80
2019-04-10T05:32:43.759Z,8.80
2019-04-10T05:35:13.806Z,8.80
2019-04-10T05:37:43.614Z,8.80
2019-04-10T05:40:13.374Z,8.80
2019-04-10T05:42:43.176Z,8.90
2019-04-10T05:45:13.116Z,8.90
2019-04-10T05:47:42.904Z,8.90
2019-04-10T05:50:13.045Z,8.90
2019-04-10T05:52:43.036Z,8.80
2019-04-10T05:55:13.915Z,8.80
2019-04-10T05:57:44.915Z,8.70
2019-04-10T06:00:16.754Z,8.70
2019-04-10T06:02:46.607Z,8.70
2019-04-10T06:05:16.486Z,8.60
2019-04-10T06:07:46.271Z,8.60
2019-04-10T06:10:16.163Z,8.60
2019-04-10T06:12:46.919Z,8.60
2019-04-10T06:15:16.956Z,8.50
2019-04-10T06:17:47.017Z,8.40
2019-04-10T06:20:17.533Z,8.40
2019-04-10T06:22:48.417Z,8.40
2019-04-10T06:25:19.510Z,8.40
2019-04-10T06:27:50.583Z,8.50
2019-04-10T06:30:20.592Z,8.40
2019-04-10T06:32:51.548Z,8.50
2019-04-10T06:35:22.006Z,8.40
2019-04-10T06:37:52.514Z,8.40
2019-04-10T06:40:24.676Z,8.40
2019-04-10T06:42:56.096Z,8.40
2019-04-10T06:45:25.957Z,8.40
2019-04-10T06:47:55.839Z,8.50
2019-04-10T06:50:26.567Z,8.50
2019-04-10T06:52:56.877Z,8.60
2019-04-10T06:55:27.981Z,8.60
2019-04-10T06:57:59.272Z,8.60
2019-04-10T07:00:30.566Z,8.70
2019-04-10T07:03:00.980Z,8.70
2019-04-10T07:05:40.795Z,8.70
2019-04-10T07:08:13.448Z,8.80
2019-04-10T07:10:48.323Z,8.80
2019-04-10T07:13:08.634Z,8.70
2019-04-10T07:15:39.691Z,8.80
2019-04-10T07:18:14.273Z,8.90
2019-04-10T07:20:42.043Z,9.00
2019-04-10T07:23:14.514Z,9.10
2019-04-10T07:25:45.513Z,9.10
2019-04-10T07:28:14.974Z,9.10
2019-04-10T07:30:45.677Z,9.10
2019-04-10T07:33:19.187Z,9.20
2019-04-10T07:35:48.250Z,9.20
2019-04-10T07:38:18.402Z,9.20
2019-04-10T07:40:49.575Z,9.20
2019-04-10T07:43:24.672Z,9.30
2019-04-10T07:45:50.831Z,9.30
2019-04-10T07:48:20.607Z,9.40
2019-04-10T07:50:51.488Z,9.50
2019-04-10T07:53:22.557Z,9.50
2019-04-10T07:56:02.266Z,9.50
2019-04-10T07:58:24.144Z,9.60
2019-04-10T08:00:53.953Z,9.70
2019-04-10T08:03:23.755Z,9.70
2019-04-10T08:05:54.690Z,9.70
2019-04-10T08:08:25.621Z,9.80
2019-04-10T08:10:55.555Z,9.80
2019-04-10T08:13:25.338Z,9.90
2019-04-10T08:15:56.121Z,10.00
2019-04-10T08:18:27.449Z,10.00
2019-04-10T08:20:57.482Z,10.10
2019-04-10T08:23:28.136Z,10.20
2019-04-10T08:25:58.100Z,10.20
2019-04-10T08:28:30.494Z,10.40
2019-04-10T08:30:59.439Z,10.40
2019-04-10T08:33:30.187Z,10.50
2019-04-10T08:36:01.162Z,10.50
2019-04-10T08:38:32.370Z,10.60
2019-04-10T08:41:02.810Z,10.60
2019-04-10T08:43:34.015Z,10.60
2019-04-10T08:46:05.210Z,10.70
2019-04-10T08:48:35.166Z,10.70
2019-04-10T08:51:05.087Z,10.70
2019-04-10T08:53:36.087Z,10.80
2019-04-10T08:56:06.588Z,10.80
2019-04-10T08:58:36.446Z,10.90
2019-04-10T09:01:07.166Z,10.90
2019-04-10T09:03:37.221Z,11.00
2019-04-10T09:06:07.273Z,11.10
2019-04-10T09:08:37.256Z,11.10
2019-04-10T09:11:07.182Z,11.20
2019-04-10T09:13:37.147Z,11.30
2019-04-10T09:16:06.943Z,11.40
2019-04-10T09:18:37.184Z,11.50
2019-04-10T09:21:07.172Z,11.50
2019-04-10T09:23:44.532Z,11.50
2019-04-10T09:26:08.507Z,11.60
2019-04-10T09:28:38.403Z,11.60
2019-04-10T09:31:09.341Z,11.70
2019-04-10T09:33:39.327Z,11.70
2019-04-10T09:36:09.131Z,11.80
2019-04-10T09:38:39.046Z,11.90
2019-04-10T09:41:09.929Z,12.00
2019-04-10T09:43:40.096Z,12.10
2019-04-10T09:46:11.200Z,12.00
2019-04-10T09:48:42.075Z,12.00
2019-04-10T09:51:12.025Z,12.10
2019-04-10T09:53:41.826Z,12.00
2019-04-10T09:56:11.768Z,12.10
2019-04-10T09:58:42.701Z,12.00
2019-04-10T10:01:15.219Z,12.10
2019-04-10T10:03:45.463Z,12.10
2019-04-10T10:06:24.285Z,12.20
2019-04-10T10:08:47.896Z,12.40
2019-04-10T10:11:18.122Z,12.40
2019-04-10T10:13:48.360Z,12.50
2019-04-10T10:16:18.919Z,12.60
2019-04-10T10:18:49.792Z,12.70
2019-04-10T10:21:20.730Z,12.80
2019-04-10T10:23:50.607Z,12.90
2019-04-10T10:26:20.413Z,13.00
2019-04-10T10:28:50.200Z,13.10
2019-04-10T10:31:20.190Z,13.10
2019-04-10T10:33:50.226Z,13.20
2019-04-10T10:36:20.052Z,13.20
2019-04-10T10:39:02.948Z,13.20
2019-04-10T10:41:22.242Z,13.20
2019-04-10T10:43:52.987Z,13.30
2019-04-10T10:46:23.141Z,13.40
2019-04-10T10:48:53.809Z,13.40
2019-04-10T10:51:23.724Z,13.50
2019-04-10T10:53:54.475Z,13.60
2019-04-10T10:56:24.528Z,13.60
2019-04-10T10:58:56.224Z,13.70
2019-04-10T11:01:25.804Z,13.70
2019-04-10T11:03:56.327Z,13.80
2019-04-10T11:06:26.866Z,13.90
2019-04-10T11:08:56.765Z,14.00
2019-04-10T11:11:26.574Z,14.00
2019-04-10T11:13:57.280Z,14.10
2019-04-10T11:16:27.313Z,14.20
2019-04-10T11:18:57.647Z,14.20
2019-04-10T11:21:27.658Z,14.30
2019-04-10T11:23:58.528Z,14.30
2019-04-10T11:26:30.097Z,14.30
2019-04-10T11:28:59.831Z,14.40
2019-04-10T11:31:29.644Z,14.50
2019-04-10T11:34:00.102Z,14.60
2019-04-10T11:36:32.340Z,14.60
2019-04-10T11:41:37.231Z,14.70
2019-04-10T11:44:08.138Z,14.70
2019-04-10T11:46:41.440Z,14.70
2019-04-10T11:49:11.048Z,14.70
2019-04-10T11:51:41.343Z,14.70
2019-04-10T11:54:14.621Z,14.80
2019-04-10T11:56:43.680Z,14.90
2019-04-10T11:59:14.473Z,14.90
2019-04-10T12:01:46.374Z,15.00
2019-04-10T12:04:19.202Z,15.00
2019-04-10T12:06:51.804Z,15.20
2019-04-10T12:09:57.083Z,15.20
2019-04-10T12:11:50.409Z,15.10
2019-04-10T12:14:20.204Z,15.20
2019-04-10T12:16:50.007Z,15.20
2019-04-10T12:19:22.727Z,15.30
2019-04-10T12:21:52.156Z,15.40
2019-04-10T12:24:21.944Z,15.50
2019-04-10T12:26:51.939Z,15.60
2019-04-10T12:29:22.570Z,15.70
2019-04-10T12:31:52.496Z,15.80
2019-04-10T12:34:22.500Z,15.90
2019-04-10T12:36:53.316Z,15.90
2019-04-10T12:39:23.271Z,16.00
2019-04-10T12:41:53.087Z,16.10
2019-04-10T12:44:23.371Z,16.20
2019-04-10T12:46:53.347Z,16.10
2019-04-10T12:49:23.443Z,16.20
2019-04-10T12:51:54.094Z,16.20
2019-04-10T12:54:23.983Z,16.30
2019-04-10T12:56:54.662Z,16.40
2019-04-10T12:59:25.670Z,16.40
2019-04-10T13:01:55.633Z,16.40
2019-04-10T13:04:25.435Z,16.60
2019-04-10T13:06:56.904Z,16.80
2019-04-10T13:09:27.879Z,17.00
2019-04-10T13:11:58.738Z,17.10
2019-04-10T13:14:28.648Z,17.20
2019-04-10T13:16:58.587Z,17.20
2019-04-10T13:19:29.177Z,17.20
2019-04-10T13:21:59.982Z,17.20
2019-04-10T13:24:29.977Z,17.30
2019-04-10T13:26:59.921Z,17.40
2019-04-10T13:29:30.029Z,17.80
2019-04-10T13:32:00.064Z,19.00
2019-04-10T13:34:30.234Z,21.50
2019-04-10T13:37:00.035Z,24.20
2019-04-10T13:39:30.775Z,26.30
2019-04-10T13:42:00.999Z,27.90
2019-04-10T13:44:30.848Z,28.70
2019-04-10T13:47:01.499Z,29.80
2019-04-10T13:49:31.552Z,31.40
2019-04-10T13:52:01.511Z,32.20
2019-04-10T13:54:31.521Z,32.80
2019-04-10T13:57:01.546Z,32.70
2019-04-10T13:59:31.392Z,32.90
2019-04-10T14:02:01.277Z,33.30
2019-04-10T14:04:31.333Z,33.40
2019-04-10T14:07:01.967Z,32.80
2019-04-10T14:09:41.441Z,33.20
2019-04-10T14:12:04.005Z,33.80
2019-04-10T14:14:35.016Z,34.80
2019-04-10T14:17:06.777Z,35.30
2019-04-10T14:19:37.387Z,35.50
2019-04-10T14:22:07.237Z,34.80
2019-04-10T14:24:42.765Z,35.00
2019-04-10T14:27:10.541Z,35.40
2019-04-10T14:29:40.774Z,36.10
2019-04-10T14:32:13.296Z,36.80
2019-04-10T14:34:43.164Z,37.20
2019-04-10T14:37:13.692Z,37.60
2019-04-10T14:42:16.090Z,37.30
2019-04-10T14:44:46.401Z,37.50
2019-04-10T14:47:17.139Z,37.40
2019-04-10T14:49:47.251Z,37.70
2019-04-10T14:52:17.031Z,36.20
2019-04-10T14:54:48.126Z,34.50
2019-04-10T14:57:18.927Z,34.40
2019-04-10T14:59:49.308Z,34.90
2019-04-10T15:02:19.738Z,34.80
2019-04-10T15:04:49.530Z,34.60
2019-04-10T15:07:19.788Z,33.90
2019-04-10T15:09:49.795Z,32.40
2019-04-10T15:12:20.982Z,31.40
2019-04-10T15:14:50.739Z,30.60
2019-04-10T15:17:21.040Z,28.90
2019-04-10T15:19:52.590Z,27.60
2019-04-10T15:22:23.490Z,27.10
2019-04-10T15:24:54.468Z,26.70
2019-04-10T15:27:25.053Z,26.00
2019-04-10T15:29:54.924Z,25.10
2019-04-10T15:32:25.245Z,23.90
2019-04-10T15:34:55.789Z,23.00
2019-04-10T15:37:25.878Z,23.10
2019-04-10T15:39:55.705Z,23.70
2019-04-10T15:42:25.504Z,23.60
2019-04-10T15:44:55.308Z,23.10
2019-04-10T15:47:25.178Z,22.80
2019-04-10T15:49:54.979Z,22.20
2019-04-10T15:52:24.930Z,21.40
2019-04-10T15:54:55.452Z,20.80
2019-04-10T15:57:25.415Z,20.20
2019-04-10T15:59:55.194Z,19.40
2019-04-10T16:02:25.881Z,18.80
2019-04-10T16:04:55.848Z,18.20
2019-04-10T16:07:27.287Z,17.80
2019-04-10T16:09:59.103Z,17.30
2019-04-10T16:12:30.404Z,17.00
2019-04-10T16:15:02.739Z,16.60
2019-04-10T16:17:52.565Z,16.40
2019-04-10T16:20:25.220Z,15.90
2019-04-10T16:22:56.911Z,15.50
2019-04-10T16:25:30.073Z,15.20
2019-04-10T16:28:02.111Z,15.00
2019-04-10T16:30:32.966Z,14.90
2019-04-10T16:33:03.056Z,14.80
2019-04-10T16:35:35.230Z,14.80
2019-04-10T16:38:05.649Z,14.70
2019-04-10T16:40:36.579Z,14.70
2019-04-10T16:43:07.878Z,14.50
2019-04-10T16:45:38.556Z,14.40
2019-04-10T16:48:10.568Z,14.30
2019-04-10T16:50:40.504Z,14.30
2019-04-10T16:53:11.841Z,14.20
2019-04-10T16:55:42.992Z,13.90
2019-04-10T16:58:13.729Z,13.70
2019-04-10T17:00:43.716Z,13.70
2019-04-10T17:03:13.615Z,13.60
2019-04-10T17:05:44.422Z,13.50
2019-04-10T17:08:14.232Z,13.40
2019-04-10T17:10:45.636Z,13.30
2019-04-10T17:13:16.226Z,13.30
2019-04-10T17:15:48.542Z,13.30
2019-04-10T17:18:17.772Z,13.30
2019-04-10T17:20:48.487Z,13.30
2019-04-10T17:23:18.649Z,13.20
2019-04-10T17:25:48.757Z,13.10
2019-04-10T17:28:18.726Z,13.00
2019-04-10T17:30:49.651Z,12.90
2019-04-10T17:33:20.651Z,12.80
2019-04-10T17:35:51.574Z,12.80
2019-04-10T17:38:22.615Z,12.70
2019-04-10T17:40:56.506Z,12.80
2019-04-10T17:43:25.382Z,12.60
2019-04-10T17:45:55.640Z,12.50
2019-04-10T17:48:25.956Z,12.40
2019-04-10T17:50:57.366Z,12.30
2019-04-10T17:53:27.372Z,12.30
2019-04-10T17:55:58.024Z,12.30
2019-04-10T17:58:27.954Z,12.20
2019-04-10T18:00:59.750Z,12.20
2019-04-10T18:03:42.923Z,12.20
2019-04-10T18:06:03.325Z,12.20
2019-04-10T18:08:33.329Z,12.10
2019-04-10T18:11:03.781Z,12.10
2019-04-10T18:13:34.209Z,12.10
2019-04-10T18:16:04.323Z,12.00
2019-04-10T18:18:34.228Z,11.90
2019-04-10T18:21:04.541Z,11.90
2019-04-10T18:23:35.396Z,11.80
2019-04-10T18:26:06.627Z,11.80
2019-04-10T18:28:37.903Z,11.80
2019-04-10T18:31:08.344Z,11.70
2019-04-10T18:33:38.453Z,11.60
2019-04-10T18:36:08.409Z,11.50
2019-04-10T18:38:38.228Z,11.40
2019-04-10T18:41:09.042Z,11.40
2019-04-10T18:43:40.314Z,11.40
2019-04-10T18:46:13.410Z,11.40
2019-04-10T18:48:45.082Z,11.40
2019-04-10T18:51:14.013Z,11.30
2019-04-10T18:53:43.991Z,11.20
2019-04-10T18:56:13.826Z,11.10
2019-04-10T18:58:47.986Z,11.00
2019-04-10T19:01:35.611Z,11.00
2019-04-10T19:04:08.345Z,11.00
2019-04-10T19:06:58.685Z,11.00
2019-04-10T19:09:30.376Z,10.90
2019-04-10T19:12:00.483Z,10.90
2019-04-10T19:14:30.437Z,10.80
2019-04-10T19:17:00.439Z,10.70
2019-04-10T19:19:30.375Z,10.70
2019-04-10T19:22:00.230Z,10.60
2019-04-10T19:24:30.399Z,10.60
2019-04-10T19:27:00.178Z,10.50
2019-04-10T19:29:30.058Z,10.50
2019-04-10T19:32:02.190Z,10.40
2019-04-10T19:34:33.691Z,10.40
2019-04-10T19:37:04.102Z,10.30
2019-04-10T19:39:34.181Z,10.30
2019-04-10T19:42:04.984Z,10.30
2019-04-10T19:44:35.210Z,10.20
2019-04-10T19:47:06.344Z,10.20
2019-04-10T19:49:37.040Z,10.20
2019-04-10T19:52:08.618Z,10.10
2019-04-10T19:54:38.804Z,10.00
2019-04-10T19:57:08.981Z,10.00
2019-04-10T19:59:39.860Z,10.00
2019-04-10T20:02:10.783Z,10.00
2019-04-10T20:04:40.984Z,10.00
2019-04-10T20:07:11.205Z,10.00
2019-04-10T20:09:41.113Z,9.90
2019-04-10T20:12:10.931Z,9.90
2019-04-10T20:14:40.924Z,9.90
2019-04-10T20:17:11.527Z,10.00
2019-04-10T20:19:42.549Z,10.00
2019-04-10T20:22:12.665Z,9.90
2019-04-10T20:24:43.116Z,9.90
2019-04-10T20:27:14.063Z,9.90
2019-04-10T20:29:45.171Z,9.80
2019-04-10T20:32:15.587Z,9.80
2019-04-10T20:34:45.470Z,9.80
2019-04-10T20:37:15.440Z,9.80
2019-04-10T20:39:45.535Z,9.80
2019-04-10T20:42:16.160Z,9.80
2019-04-10T20:44:47.078Z,9.80
2019-04-10T20:47:17.233Z,9.80
2019-04-10T20:49:47.087Z,9.70
2019-04-10T20:52:17.878Z,9.70
2019-04-10T20:54:48.828Z,9.70
2019-04-10T20:57:19.435Z,9.60
2019-04-10T20:59:53.155Z,9.60
2019-04-10T21:02:24.323Z,9.60
2019-04-10T21:05:01.469Z,9.50
2019-04-10T21:07:46.573Z,9.50
2019-04-10T21:10:17.134Z,9.50
2019-04-10T21:12:50.419Z,9.40
2019-04-10T21:15:21.506Z,9.40
2019-04-10T21:17:51.367Z,9.40
2019-04-10T21:20:22.431Z,9.40
2019-04-10T21:22:53.438Z,9.40
2019-04-10T21:25:23.299Z,9.40
2019-04-10T21:27:54.665Z,9.40
2019-04-10T21:30:26.387Z,9.40
2019-04-10T21:33:03.989Z,9.40
2019-04-10T21:35:35.439Z,9.40
2019-04-10T21:38:06.838Z,9.30
2019-04-10T21:40:36.860Z,9.40
2019-04-10T21:43:06.627Z,9.30
2019-04-10T21:45:36.451Z,9.20
2019-04-10T21:48:06.460Z,9.20
2019-04-10T21:50:37.610Z,9.30
2019-04-10T21:53:08.094Z,9.30
2019-04-10T21:55:38.062Z,9.30
2019-04-10T21:58:08.193Z,9.30
2019-04-10T22:00:57.096Z,9.30
2019-04-10T22:03:29.476Z,9.20
2019-04-10T22:06:18.054Z,9.20
2019-04-10T22:08:49.985Z,9.30
2019-04-10T22:11:21.144Z,9.20
2019-04-10T22:13:51.017Z,9.20
2019-04-10T22:16:22.459Z,9.20
2019-04-10T22:18:52.235Z,9.10
2019-04-10T22:21:23.103Z,9.20
2019-04-10T22:23:53.171Z,9.20
2019-04-10T22:26:23.069Z,9.20
2019-04-10T22:28:52.855Z,9.20
2019-04-10T22:31:23.829Z,9.10
2019-04-10T22:33:54.446Z,9.10
2019-04-10T22:36:24.856Z,9.00
2019-04-10T22:38:54.708Z,9.00
2019-04-10T22:41:30.288Z,8.90
2019-04-10T22:43:56.994Z,9.00
2019-04-10T22:46:27.862Z,8.90
2019-04-10T22:48:57.799Z,8.80
2019-04-10T22:51:40.087Z,8.80
2019-04-10T22:54:10.164Z,8.80
2019-04-10T22:56:42.415Z,8.90
2019-04-10T22:59:12.202Z,8.90
2019-04-10T23:01:45.352Z,8.80
2019-04-10T23:04:15.223Z,8.80
2019-04-10T23:06:45.125Z,8.70
2019-04-10T23:09:15.873Z,8.70
2019-04-10T23:11:46.883Z,8.70
2019-04-10T23:14:16.946Z,8.70
2019-04-10T23:16:46.823Z,8.70
2019-04-10T23:19:16.607Z,8.70
2019-04-10T23:21:47.056Z,8.60
2019-04-10T23:24:16.959Z,8.50
2019-04-10T23:26:47.049Z,8.40
2019-04-10T23:29:17.024Z,8.40
2019-04-10T23:31:47.752Z,8.30
2019-04-10T23:34:18.797Z,8.30
2019-04-10T23:36:48.747Z,8.20
2019-04-10T23:39:19.695Z,8.20
2019-04-10T23:41:52.083Z,8.20
2019-04-10T23:44:21.073Z,8.20
2019-04-10T23:46:51.660Z,8.20
2019-04-10T23:49:21.627Z,8.10
2019-04-10T23:51:51.615Z,8.10
2019-04-10T23:54:21.597Z,8.00
2019-04-10T23:56:52.583Z,7.90
2019-04-10T23:59:22.559Z,7.90
